sensor_id;sensor_type;location;lat;lon;timestamp;pressure;altitude;pressure_sealevel;temperature;humidity
22572;BME280;11452;53.368;14.658;2024-01-30T00:01:43;102363.44;;;4.96;63.09
22572;BME280;11452;53.368;14.658;2024-01-30T00:06:51;102363.44;;;4.96;63.09
22572;BME280;11452;53.368;14.658;2024-01-30T00:11:59;102361.27;;;4.88;63.17
22572;BME280;11452;53.368;14.658;2024-01-30T00:17:04;102364.83;;;4.82;63.52
22572;BME280;11452;53.368;14.658;2024-01-30T00:22:10;102364.83;;;4.82;63.52
22572;BME280;11452;53.368;14.658;2024-01-30T00:27:16;102364.42;;;4.81;63.62
22572;BME280;11452;53.368;14.658;2024-01-30T00:32:22;102355.20;;;4.71;64.20
22572;BME280;11452;53.368;14.658;2024-01-30T00:37:28;102355.20;;;4.71;64.20
22572;BME280;11452;53.368;14.658;2024-01-30T00:42:33;102351.23;;;4.71;64.21
22572;BME280;11452;53.368;14.658;2024-01-30T00:47:39;102342.38;;;4.75;64.33
22572;BME280;11452;53.368;14.658;2024-01-30T00:52:45;102346.81;;;4.71;64.46
22572;BME280;11452;53.368;14.658;2024-01-30T00:57:51;102346.81;;;4.71;64.46
22572;BME280;11452;53.368;14.658;2024-01-30T01:02:56;102347.28;;;4.66;64.60
22572;BME280;11452;53.368;14.658;2024-01-30T01:08:02;102347.72;;;4.66;64.81
22572;BME280;11452;53.368;14.658;2024-01-30T01:13:09;102346.39;;;4.66;64.97
22572;BME280;11452;53.368;14.658;2024-01-30T01:18:15;102342.84;;;4.71;64.92
22572;BME280;11452;53.368;14.658;2024-01-30T01:23:21;102348.16;;;4.68;65.05
22572;BME280;11452;53.368;14.658;2024-01-30T01:28:26;102346.45;;;4.60;65.17
22572;BME280;11452;53.368;14.658;2024-01-30T01:33:33;102341.64;;;4.50;65.26
22572;BME280;11452;53.368;14.658;2024-01-30T01:38:39;102338.60;;;4.44;65.25
22572;BME280;11452;53.368;14.658;2024-01-30T01:43:44;102333.33;;;4.38;65.56
22572;BME280;11452;53.368;14.658;2024-01-30T01:48:50;102329.81;;;4.33;65.88
22572;BME280;11452;53.368;14.658;2024-01-30T01:53:57;102336.86;;;4.36;65.99
22572;BME280;11452;53.368;14.658;2024-01-30T01:59:08;102334.22;;;4.34;66.08
22572;BME280;11452;53.368;14.658;2024-01-30T02:04:14;102338.20;;;4.33;66.27
22572;BME280;11452;53.368;14.658;2024-01-30T02:09:19;102331.20;;;4.21;66.42
22572;BME280;11452;53.368;14.658;2024-01-30T02:14:25;102331.20;;;4.21;66.42
22572;BME280;11452;53.368;14.658;2024-01-30T02:19:32;102331.66;;;4.19;66.64
22572;BME280;11452;53.368;14.658;2024-01-30T02:24:38;102328.14;;;4.12;66.81
22572;BME280;11452;53.368;14.658;2024-01-30T02:29:44;102323.29;;;4.10;67.05
22572;BME280;11452;53.368;14.658;2024-01-30T02:34:50;102315.40;;;4.07;67.19
22572;BME280;11452;53.368;14.658;2024-01-30T02:39:56;102307.03;;;4.03;67.26
22572;BME280;11452;53.368;14.658;2024-01-30T02:45:02;102308.34;;;4.05;67.29
22572;BME280;11452;53.368;14.658;2024-01-30T02:50:08;102315.84;;;4.05;67.45
22572;BME280;11452;53.368;14.658;2024-01-30T02:55:20;102307.47;;;4.03;67.52
22572;BME280;11452;53.368;14.658;2024-01-30T03:00:25;102310.56;;;4.01;67.62
22572;BME280;11452;53.368;14.658;2024-01-30T03:05:31;102308.80;;;4.00;67.79
22572;BME280;11452;53.368;14.658;2024-01-30T03:10:37;102310.12;;;4.03;67.98
22572;BME280;11452;53.368;14.658;2024-01-30T03:15:43;102313.20;;;4.05;67.96
22572;BME280;11452;53.368;14.658;2024-01-30T03:20:48;102317.61;;;4.03;68.07
22572;BME280;11452;53.368;14.658;2024-01-30T03:25:55;102311.00;;;4.03;68.24
22572;BME280;11452;53.368;14.658;2024-01-30T03:31:00;102315.84;;;4.02;68.16
22572;BME280;11452;53.368;14.658;2024-01-30T03:36:07;102311.44;;;4.00;68.31
22572;BME280;11452;53.368;14.658;2024-01-30T03:41:13;102310.56;;;3.99;68.34
22572;BME280;11452;53.368;14.658;2024-01-30T03:46:19;102313.21;;;3.98;68.37
22572;BME280;11452;53.368;14.658;2024-01-30T03:51:24;102309.69;;;3.96;68.40
22572;BME280;11452;53.368;14.658;2024-01-30T03:56:30;102308.37;;;3.94;68.63
22572;BME280;11452;53.368;14.658;2024-01-30T04:01:36;102307.05;;;3.93;68.68
22572;BME280;11452;53.368;14.658;2024-01-30T04:06:42;102302.69;;;3.89;68.82
22572;BME280;11452;53.368;14.658;2024-01-30T04:11:47;102313.70;;;3.90;68.92
22572;BME280;11452;53.368;14.658;2024-01-30T04:16:53;102311.06;;;3.87;69.08
22572;BME280;11452;53.368;14.658;2024-01-30T04:21:59;102314.58;;;3.89;69.25
22572;BME280;11452;53.368;14.658;2024-01-30T04:27:05;102307.93;;;3.93;69.33
22572;BME280;11452;53.368;14.658;2024-01-30T04:32:10;102303.52;;;3.91;69.32
22572;BME280;11452;53.368;14.658;2024-01-30T04:37:16;102308.86;;;3.86;69.44
22572;BME280;11452;53.368;14.658;2024-01-30T04:42:22;102310.18;;;3.85;69.57
22572;BME280;11452;53.368;14.658;2024-01-30T04:47:28;102312.83;;;3.85;69.72
22572;BME280;11452;53.368;14.658;2024-01-30T04:52:34;102311.94;;;3.86;69.79
22572;BME280;11452;53.368;14.658;2024-01-30T04:57:40;102310.63;;;3.86;69.91
22572;BME280;11452;53.368;14.658;2024-01-30T05:02:46;102307.10;;;3.82;69.96
22572;BME280;11452;53.368;14.658;2024-01-30T05:07:52;102309.75;;;3.82;70.12
22572;BME280;11452;53.368;14.658;2024-01-30T05:12:57;102311.51;;;3.81;70.19
22572;BME280;11452;53.368;14.658;2024-01-30T05:18:04;102313.71;;;3.82;70.20
22572;BME280;11452;53.368;14.658;2024-01-30T05:23:10;102322.97;;;3.80;70.31
22572;BME280;11452;53.368;14.658;2024-01-30T05:28:16;102314.59;;;3.79;70.31
22572;BME280;11452;53.368;14.658;2024-01-30T05:33:21;102311.52;;;3.77;70.50
22572;BME280;11452;53.368;14.658;2024-01-30T05:38:27;102308.88;;;3.75;70.65
22572;BME280;11452;53.368;14.658;2024-01-30T05:43:33;102315.92;;;3.73;70.57
22572;BME280;11452;53.368;14.658;2024-01-30T05:48:39;102306.23;;;3.75;70.75
22572;BME280;11452;53.368;14.658;2024-01-30T05:53:44;102306.23;;;3.74;70.84
22572;BME280;11452;53.368;14.658;2024-01-30T05:58:50;102304.47;;;3.73;71.00
22572;BME280;11452;53.368;14.658;2024-01-30T06:03:56;102302.70;;;3.75;71.09
22572;BME280;11452;53.368;14.658;2024-01-30T06:09:02;102297.84;;;3.77;71.37
22572;BME280;11452;53.368;14.658;2024-01-30T06:14:08;102295.20;;;3.80;71.22
22572;BME280;11452;53.368;14.658;2024-01-30T06:19:16;102289.91;;;3.83;71.35
22572;BME280;11452;53.368;14.658;2024-01-30T06:24:22;102296.08;;;3.86;71.42
22572;BME280;11452;53.368;14.658;2024-01-30T06:29:27;102295.64;;;3.85;71.61
22572;BME280;11452;53.368;14.658;2024-01-30T06:34:33;102287.70;;;3.81;71.55
22572;BME280;11452;53.368;14.658;2024-01-30T06:39:39;102298.72;;;3.86;71.63
22572;BME280;11452;53.368;14.658;2024-01-30T06:44:46;102300.05;;;3.86;71.71
22572;BME280;11452;53.368;14.658;2024-01-30T06:49:51;102300.48;;;3.85;71.87
22572;BME280;11452;53.368;14.658;2024-01-30T06:54:57;102288.59;;;3.85;71.92
22572;BME280;11452;53.368;14.658;2024-01-30T07:00:04;102289.47;;;3.84;71.98
22572;BME280;11452;53.368;14.658;2024-01-30T07:05:10;102291.67;;;3.83;72.13
22572;BME280;11452;53.368;14.658;2024-01-30T07:10:16;102289.91;;;3.87;72.27
22572;BME280;11452;53.368;14.658;2024-01-30T07:15:21;102291.18;;;3.91;72.38
22572;BME280;11452;53.368;14.658;2024-01-30T07:20:27;102288.52;;;4.00;72.39
22572;BME280;11452;53.368;14.658;2024-01-30T07:25:35;102280.97;;;4.09;72.41
22572;BME280;11452;53.368;14.658;2024-01-30T07:30:41;102281.80;;;4.23;72.47
22572;BME280;11452;53.368;14.658;2024-01-30T07:35:47;102284.78;;;4.42;72.40
22572;BME280;11452;53.368;14.658;2024-01-30T07:40:53;102281.13;;;4.63;72.17
22572;BME280;11452;53.368;14.658;2024-01-30T07:46:00;102278.34;;;4.81;72.07
22572;BME280;11452;53.368;14.658;2024-01-30T07:51:07;102277.70;;;5.03;71.87
22572;BME280;11452;53.368;14.658;2024-01-30T07:56:13;102274.41;;;5.25;71.63
22572;BME280;11452;53.368;14.658;2024-01-30T08:01:19;102272.47;;;5.42;71.36
22572;BME280;11452;53.368;14.658;2024-01-30T08:06:25;102264.73;;;5.63;71.06
22572;BME280;11452;53.368;14.658;2024-01-30T08:11:30;102260.97;;;5.82;70.81
22572;BME280;11452;53.368;14.658;2024-01-30T08:16:36;102270.47;;;6.05;70.63
22572;BME280;11452;53.368;14.658;2024-01-30T08:21:42;102276.86;;;6.23;70.30
22572;BME280;11452;53.368;14.658;2024-01-30T08:26:48;102281.02;;;6.42;69.57
22572;BME280;11452;53.368;14.658;2024-01-30T08:31:53;102282.02;;;6.65;68.94
22572;BME280;11452;53.368;14.658;2024-01-30T08:37:01;102279.09;;;6.82;68.75
22572;BME280;11452;53.368;14.658;2024-01-30T08:42:06;102285.91;;;6.98;68.66
22572;BME280;11452;53.368;14.658;2024-01-30T08:47:12;102269.75;;;7.10;68.19
22572;BME280;11452;53.368;14.658;2024-01-30T08:52:18;102282.31;;;7.26;67.99
22572;BME280;11452;53.368;14.658;2024-01-30T08:57:24;102277.56;;;7.43;67.58
22572;BME280;11452;53.368;14.658;2024-01-30T09:02:31;102276.48;;;7.55;67.21
22572;BME280;11452;53.368;14.658;2024-01-30T09:07:37;102274.45;;;7.68;67.04
22572;BME280;11452;53.368;14.658;2024-01-30T09:12:43;102282.16;;;7.81;66.75
22572;BME280;11452;53.368;14.658;2024-01-30T09:17:49;102281.73;;;7.80;66.32
22572;BME280;11452;53.368;14.658;2024-01-30T09:22:55;102276.19;;;7.92;66.37
22572;BME280;11452;53.368;14.658;2024-01-30T09:28:01;102275.83;;;8.09;65.93
22572;BME280;11452;53.368;14.658;2024-01-30T09:33:07;102269.53;;;8.13;65.19
22572;BME280;11452;53.368;14.658;2024-01-30T09:38:13;102272.50;;;8.19;64.94
22572;BME280;11452;53.368;14.658;2024-01-30T09:43:21;102274.98;;;8.28;64.70
22572;BME280;11452;53.368;14.658;2024-01-30T09:48:30;102270.14;;;8.26;63.87
22572;BME280;11452;53.368;14.658;2024-01-30T09:53:37;102266.89;;;8.34;64.29
22572;BME280;11452;53.368;14.658;2024-01-30T09:58:43;102253.28;;;8.46;63.69
22572;BME280;11452;53.368;14.658;2024-01-30T10:03:51;102251.37;;;8.53;63.64
22572;BME280;11452;53.368;14.658;2024-01-30T10:08:59;102262.57;;;8.67;63.31
22572;BME280;11452;53.368;14.658;2024-01-30T10:14:05;102268.88;;;8.63;62.92
22572;BME280;11452;53.368;14.658;2024-01-30T10:19:12;102270.92;;;8.71;62.80
22572;BME280;11452;53.368;14.658;2024-01-30T10:24:18;102259.88;;;8.68;62.20
22572;BME280;11452;53.368;14.658;2024-01-30T10:29:23;102250.16;;;8.66;61.92
22572;BME280;11452;53.368;14.658;2024-01-30T10:34:30;102237.42;;;8.59;61.94
22572;BME280;11452;53.368;14.658;2024-01-30T10:39:38;102232.77;;;8.69;62.04
22572;BME280;11452;53.368;14.658;2024-01-30T10:50:08;102213.95;;;8.91;61.74
22572;BME280;11452;53.368;14.658;2024-01-30T10:55:16;102201.20;;;9.04;61.43
22572;BME280;11452;53.368;14.658;2024-01-30T11:00:23;102200.41;;;9.17;61.24
22572;BME280;11452;53.368;14.658;2024-01-30T11:05:30;102185.35;;;9.30;60.50
22572;BME280;11452;53.368;14.658;2024-01-30T11:10:47;102188.36;;;9.34;60.59
22572;BME280;11452;53.368;14.658;2024-01-30T11:15:53;102186.28;;;9.46;60.27
22572;BME280;11452;53.368;14.658;2024-01-30T11:21:00;102193.15;;;9.69;60.04
22572;BME280;11452;53.368;14.658;2024-01-30T11:26:06;102190.44;;;9.85;59.92
22572;BME280;11452;53.368;14.658;2024-01-30T11:31:14;102186.70;;;10.05;59.43
22572;BME280;11452;53.368;14.658;2024-01-30T11:36:25;102181.41;;;10.04;58.87
22572;BME280;11452;53.368;14.658;2024-01-30T11:41:30;102176.45;;;10.21;58.90
22572;BME280;11452;53.368;14.658;2024-01-30T11:46:37;102169.72;;;10.37;58.53
22572;BME280;11452;53.368;14.658;2024-01-30T11:51:43;102165.20;;;10.53;58.11
22572;BME280;11452;53.368;14.658;2024-01-30T11:56:49;102156.03;;;10.60;57.93
22572;BME280;11452;53.368;14.658;2024-01-30T12:01:54;102159.02;;;10.64;57.77
22572;BME280;11452;53.368;14.658;2024-01-30T12:07:00;102156.61;;;10.69;57.70
22572;BME280;11452;53.368;14.658;2024-01-30T12:12:08;102149.09;;;10.67;57.49
22572;BME280;11452;53.368;14.658;2024-01-30T12:17:30;102161.40;;;10.73;57.30
22572;BME280;11452;53.368;14.658;2024-01-30T12:22:38;102157.53;;;10.68;57.24
22572;BME280;11452;53.368;14.658;2024-01-30T12:27:46;102153.38;;;10.73;57.40
22572;BME280;11452;53.368;14.658;2024-01-30T12:32:53;102146.02;;;10.66;57.13
22572;BME280;11452;53.368;14.658;2024-01-30T12:38:00;102149.66;;;10.64;57.12
22572;BME280;11452;53.368;14.658;2024-01-30T12:43:06;102142.73;;;10.71;57.14
22572;BME280;11452;53.368;14.658;2024-01-30T12:48:11;102139.66;;;10.57;56.87
22572;BME280;11452;53.368;14.658;2024-01-30T12:53:17;102134.82;;;10.55;56.85
22572;BME280;11452;53.368;14.658;2024-01-30T12:58:23;102133.22;;;10.50;57.00
22572;BME280;11452;53.368;14.658;2024-01-30T13:03:29;102129.11;;;10.53;56.78
22572;BME280;11452;53.368;14.658;2024-01-30T13:08:35;102115.58;;;10.44;56.62
22572;BME280;11452;53.368;14.658;2024-01-30T13:13:41;102113.05;;;10.26;56.51
22572;BME280;11452;53.368;14.658;2024-01-30T13:18:47;102113.47;;;10.13;56.61
22572;BME280;11452;53.368;14.658;2024-01-30T13:23:53;102116.19;;;10.11;56.79
22572;BME280;11452;53.368;14.658;2024-01-30T13:28:59;102105.92;;;10.12;56.68
22572;BME280;11452;53.368;14.658;2024-01-30T13:34:05;102096.80;;;10.04;56.50
22572;BME280;11452;53.368;14.658;2024-01-30T13:39:12;102090.76;;;9.99;56.59
22572;BME280;11452;53.368;14.658;2024-01-30T13:44:19;102087.77;;;9.95;56.57
22572;BME280;11452;53.368;14.658;2024-01-30T13:49:25;102083.48;;;9.90;56.61
22572;BME280;11452;53.368;14.658;2024-01-30T13:54:33;102091.94;;;9.76;56.49
22572;BME280;11452;53.368;14.658;2024-01-30T13:59:39;102077.20;;;9.78;56.43
22572;BME280;11452;53.368;14.658;2024-01-30T14:04:45;102073.93;;;9.68;56.26
22572;BME280;11452;53.368;14.658;2024-01-30T14:09:50;102067.88;;;9.63;56.32
22572;BME280;11452;53.368;14.658;2024-01-30T14:14:57;102067.01;;;9.62;56.45
22572;BME280;11452;53.368;14.658;2024-01-30T14:20:06;102053.05;;;9.53;56.40
22572;BME280;11452;53.368;14.658;2024-01-30T14:25:12;102054.27;;;9.43;56.19
22572;BME280;11452;53.368;14.658;2024-01-30T14:30:18;102055.28;;;9.38;56.49
22572;BME280;11452;53.368;14.658;2024-01-30T14:35:24;102060.53;;;9.27;56.51
22572;BME280;11452;53.368;14.658;2024-01-30T14:40:30;102071.53;;;9.15;56.65
22572;BME280;11452;53.368;14.658;2024-01-30T14:45:35;102069.69;;;9.02;56.85
22572;BME280;11452;53.368;14.658;2024-01-30T14:50:41;102070.13;;;8.87;57.09
22572;BME280;11452;53.368;14.658;2024-01-30T14:55:47;102067.05;;;8.70;57.39
22572;BME280;11452;53.368;14.658;2024-01-30T15:00:52;102071.05;;;8.53;57.66
22572;BME280;11452;53.368;14.658;2024-01-30T15:05:58;102064.30;;;8.39;57.94
22572;BME280;11452;53.368;14.658;2024-01-30T15:11:04;102068.13;;;8.27;58.49
22572;BME280;11452;53.368;14.658;2024-01-30T15:16:10;102067.08;;;8.16;58.74
22572;BME280;11452;53.368;14.658;2024-01-30T15:21:16;102065.58;;;8.05;59.07
22572;BME280;11452;53.368;14.658;2024-01-30T15:26:23;102058.31;;;7.93;59.55
22572;BME280;11452;53.368;14.658;2024-01-30T15:31:29;102064.81;;;7.80;59.61
22572;BME280;11452;53.368;14.658;2024-01-30T15:36:35;102061.09;;;7.70;60.40
22572;BME280;11452;53.368;14.658;2024-01-30T15:41:41;102061.31;;;7.60;60.48
22572;BME280;11452;53.368;14.658;2024-01-30T15:46:47;102063.16;;;7.57;61.22
22572;BME280;11452;53.368;14.658;2024-01-30T15:51:52;102063.22;;;7.54;61.52
22572;BME280;11452;53.368;14.658;2024-01-30T15:56:58;102055.66;;;7.55;61.78
22572;BME280;11452;53.368;14.658;2024-01-30T16:02:04;102066.27;;;7.56;62.20
22572;BME280;11452;53.368;14.658;2024-01-30T16:07:11;102068.45;;;7.58;62.35
22572;BME280;11452;53.368;14.658;2024-01-30T16:12:17;102076.89;;;7.58;62.67
22572;BME280;11452;53.368;14.658;2024-01-30T16:17:22;102070.23;;;7.58;62.82
22572;BME280;11452;53.368;14.658;2024-01-30T16:22:28;102069.81;;;7.57;63.24
22572;BME280;11452;53.368;14.658;2024-01-30T16:27:34;102067.58;;;7.58;63.42
22572;BME280;11452;53.368;14.658;2024-01-30T16:32:40;102058.16;;;7.61;63.74
22572;BME280;11452;53.368;14.658;2024-01-30T16:37:45;102049.66;;;7.64;63.83
22572;BME280;11452;53.368;14.658;2024-01-30T16:42:51;102052.71;;;7.67;64.25
22572;BME280;11452;53.368;14.658;2024-01-30T16:47:57;102061.96;;;7.70;64.39
22572;BME280;11452;53.368;14.658;2024-01-30T16:53:03;102044.60;;;7.73;64.41
22572;BME280;11452;53.368;14.658;2024-01-30T16:58:08;102055.77;;;7.70;64.59
22572;BME280;11452;53.368;14.658;2024-01-30T17:03:16;102058.00;;;7.69;64.74
22572;BME280;11452;53.368;14.658;2024-01-30T17:08:22;102062.48;;;7.67;64.84
22572;BME280;11452;53.368;14.658;2024-01-30T17:13:27;102066.99;;;7.63;65.09
22572;BME280;11452;53.368;14.658;2024-01-30T17:18:33;102060.53;;;7.55;65.28
22572;BME280;11452;53.368;14.658;2024-01-30T17:23:40;102066.40;;;7.50;65.48
22572;BME280;11452;53.368;14.658;2024-01-30T17:28:46;102069.22;;;7.43;65.78
22572;BME280;11452;53.368;14.658;2024-01-30T17:33:51;102060.03;;;7.38;66.03
22572;BME280;11452;53.368;14.658;2024-01-30T17:38:57;102066.26;;;7.37;66.09
22572;BME280;11452;53.368;14.658;2024-01-30T17:44:06;102049.39;;;7.38;66.33
22572;BME280;11452;53.368;14.658;2024-01-30T17:49:14;102051.05;;;7.42;66.52
22572;BME280;11452;53.368;14.658;2024-01-30T17:54:20;102053.68;;;7.44;66.75
22572;BME280;11452;53.368;14.658;2024-01-30T17:59:26;102047.39;;;7.48;66.81
22572;BME280;11452;53.368;14.658;2024-01-30T18:04:32;102044.18;;;7.53;66.86
22572;BME280;11452;53.368;14.658;2024-01-30T18:09:38;102045.09;;;7.52;67.03
22572;BME280;11452;53.368;14.658;2024-01-30T18:14:43;102038.34;;;7.56;67.00
22572;BME280;11452;53.368;14.658;2024-01-30T18:19:50;102035.71;;;7.55;67.23
22572;BME280;11452;53.368;14.658;2024-01-30T18:24:56;102047.23;;;7.55;67.34
22572;BME280;11452;53.368;14.658;2024-01-30T18:30:02;102049.44;;;7.56;67.50
22572;BME280;11452;53.368;14.658;2024-01-30T18:35:09;102048.95;;;7.58;67.57
22572;BME280;11452;53.368;14.658;2024-01-30T18:40:15;102046.13;;;7.64;67.57
22572;BME280;11452;53.368;14.658;2024-01-30T18:45:23;102049.95;;;7.72;67.53
22572;BME280;11452;53.368;14.658;2024-01-30T18:50:29;102055.67;;;7.74;67.62
22572;BME280;11452;53.368;14.658;2024-01-30T18:55:35;101915.73;;;6.90;67.47
22572;BME280;11452;53.368;14.658;2024-01-30T19:00:41;102052.16;;;7.72;67.64
22572;BME280;11452;53.368;14.658;2024-01-30T19:05:48;102058.36;;;7.73;67.74
22572;BME280;11452;53.368;14.658;2024-01-30T19:10:54;102067.77;;;7.68;67.85
22572;BME280;11452;53.368;14.658;2024-01-30T19:16:00;102062.67;;;7.59;68.13
22572;BME280;11452;53.368;14.658;2024-01-30T19:21:07;102070.72;;;7.56;68.46
22572;BME280;11452;53.368;14.658;2024-01-30T19:26:14;102067.70;;;7.52;68.62
22572;BME280;11452;53.368;14.658;2024-01-30T19:31:20;102066.47;;;7.47;68.89
22572;BME280;11452;53.368;14.658;2024-01-30T19:36:26;102061.23;;;7.43;69.19
22572;BME280;11452;53.368;14.658;2024-01-30T19:41:31;102067.13;;;7.58;69.39
22572;BME280;11452;53.368;14.658;2024-01-30T19:46:37;102062.93;;;7.85;69.42
22572;BME280;11452;53.368;14.658;2024-01-30T19:51:43;102069.88;;;8.10;69.25
22572;BME280;11452;53.368;14.658;2024-01-30T19:56:49;102072.02;;;8.31;69.02
22572;BME280;11452;53.368;14.658;2024-01-30T20:01:55;102065.94;;;8.44;68.85
22572;BME280;11452;53.368;14.658;2024-01-30T20:07:02;102065.64;;;8.55;68.74
22572;BME280;11452;53.368;14.658;2024-01-30T20:12:08;102060.00;;;8.67;68.70
22572;BME280;11452;53.368;14.658;2024-01-30T20:17:14;102067.70;;;8.78;68.57
22572;BME280;11452;53.368;14.658;2024-01-30T20:22:21;102072.41;;;8.84;68.49
22572;BME280;11452;53.368;14.658;2024-01-30T20:27:27;102074.50;;;8.89;68.53
22572;BME280;11452;53.368;14.658;2024-01-30T20:32:33;102082.81;;;8.93;68.47
22572;BME280;11452;53.368;14.658;2024-01-30T20:37:39;102080.48;;;8.97;68.54
22572;BME280;11452;53.368;14.658;2024-01-30T20:42:46;102077.35;;;8.98;68.73
22572;BME280;11452;53.368;14.658;2024-01-30T20:47:52;102079.60;;;8.97;68.73
22572;BME280;11452;53.368;14.658;2024-01-30T20:52:58;102066.19;;;9.00;69.00
22572;BME280;11452;53.368;14.658;2024-01-30T20:58:04;102068.73;;;9.05;69.21
22572;BME280;11452;53.368;14.658;2024-01-30T21:03:10;102070.94;;;9.05;69.37
22572;BME280;11452;53.368;14.658;2024-01-30T21:08:16;102065.39;;;8.96;69.99
22572;BME280;11452;53.368;14.658;2024-01-30T21:13:22;102063.05;;;8.86;70.86
22572;BME280;11452;53.368;14.658;2024-01-30T21:18:28;102064.95;;;8.81;71.30
22572;BME280;11452;53.368;14.658;2024-01-30T21:23:34;102070.28;;;8.81;71.65
22572;BME280;11452;53.368;14.658;2024-01-30T21:28:40;102072.00;;;8.83;72.10
22572;BME280;11452;53.368;14.658;2024-01-30T21:33:46;102065.41;;;8.80;72.28
22572;BME280;11452;53.368;14.658;2024-01-30T21:38:52;102066.02;;;8.74;72.40
22572;BME280;11452;53.368;14.658;2024-01-30T21:43:58;102067.47;;;8.71;72.86
22572;BME280;11452;53.368;14.658;2024-01-30T21:49:04;102071.01;;;8.71;73.08
22572;BME280;11452;53.368;14.658;2024-01-30T21:54:10;102071.36;;;8.74;73.44
22572;BME280;11452;53.368;14.658;2024-01-30T21:59:16;102076.19;;;8.76;73.53
22572;BME280;11452;53.368;14.658;2024-01-30T22:04:22;102077.91;;;8.78;73.88
22572;BME280;11452;53.368;14.658;2024-01-30T22:09:28;102072.98;;;8.79;73.96
22572;BME280;11452;53.368;14.658;2024-01-30T22:14:34;102075.20;;;8.80;74.21
22572;BME280;11452;53.368;14.658;2024-01-30T22:19:40;102079.23;;;8.78;74.38
22572;BME280;11452;53.368;14.658;2024-01-30T22:24:46;102083.73;;;8.76;74.60
22572;BME280;11452;53.368;14.658;2024-01-30T22:29:52;102070.41;;;8.76;74.86
22572;BME280;11452;53.368;14.658;2024-01-30T22:34:57;102068.61;;;8.77;75.16
22572;BME280;11452;53.368;14.658;2024-01-30T22:40:05;102064.49;;;8.81;75.47
22572;BME280;11452;53.368;14.658;2024-01-30T22:45:10;102058.62;;;8.85;75.72
22572;BME280;11452;53.368;14.658;2024-01-30T22:50:16;102055.42;;;8.88;75.86
22572;BME280;11452;53.368;14.658;2024-01-30T22:55:22;102061.89;;;8.94;76.25
22572;BME280;11452;53.368;14.658;2024-01-30T23:00:28;102068.60;;;8.93;76.30
22572;BME280;11452;53.368;14.658;2024-01-30T23:05:33;102083.00;;;8.87;76.56
22572;BME280;11452;53.368;14.658;2024-01-30T23:10:40;102078.28;;;8.81;76.91
22572;BME280;11452;53.368;14.658;2024-01-30T23:15:46;102077.36;;;8.82;77.30
22572;BME280;11452;53.368;14.658;2024-01-30T23:20:51;102083.50;;;8.85;77.44
22572;BME280;11452;53.368;14.658;2024-01-30T23:25:57;102082.32;;;8.79;77.73
22572;BME280;11452;53.368;14.658;2024-01-30T23:31:03;102080.14;;;8.61;78.20
22572;BME280;11452;53.368;14.658;2024-01-30T23:36:08;102081.50;;;8.43;78.77
22572;BME280;11452;53.368;14.658;2024-01-30T23:41:15;102076.05;;;8.30;79.29
22572;BME280;11452;53.368;14.658;2024-01-30T23:46:20;102078.89;;;8.22;79.38
22572;BME280;11452;53.368;14.658;2024-01-30T23:51:26;102080.43;;;8.15;80.04
22572;BME280;11452;53.368;14.658;2024-01-30T23:56:37;102073.56;;;8.05;80.26
